Time;durP1;ratioP1;P1;durP2;ratioP2;P2;SDS_P1;SDS_P2;PMS_P1;PMS_P2;Temp;Humidity;BMP_temperature;BMP_pressure;BME280_temperature;BME280_humidity;BME280_pressure;Samples;Min_cycle;Max_cycle;Signal;HPM_P1;HPM_P2
2021/06/11 00:00:07;;;;;;;12.87;10.23;;;15.80;99.90;;;;;;5074824;28;20453;-78
2021/06/11 00:02:34;;;;;;;12.97;10.83;;;15.80;99.90;;;;;;5074367;28;20987;-77
2021/06/11 00:05:01;;;;;;;13.90;11.10;;;15.80;99.90;;;;;;5074221;28;20555;-78
2021/06/11 00:07:27;;;;;;;11.80;10.30;;;15.80;99.90;;;;;;5074742;28;20436;-78
2021/06/11 00:09:54;;;;;;;12.13;9.90;;;15.80;99.90;;;;;;5074745;28;20441;-77
2021/06/11 00:12:20;;;;;;;12.83;10.13;;;15.80;99.90;;;;;;5074168;28;20456;-78
2021/06/11 00:14:46;;;;;;;11.80;9.93;;;15.80;99.90;;;;;;5074631;28;20498;-78
2021/06/11 00:17:12;;;;;;;12.07;10.03;;;15.80;99.90;;;;;;5074463;28;20456;-77
2021/06/11 00:19:38;;;;;;;12.80;10.47;;;15.70;99.90;;;;;;5074369;28;20444;-78
2021/06/11 00:22:06;;;;;;;12.30;10.00;;;15.70;99.90;;;;;;5074251;28;20496;-78
2021/06/11 00:24:33;;;;;;;12.57;8.83;;;15.70;99.90;;;;;;5074040;28;20449;-78
2021/06/11 00:26:59;;;;;;;13.10;10.17;;;15.70;99.90;;;;;;5074228;28;20453;-78
2021/06/11 00:29:25;;;;;;;11.00;9.50;;;15.70;99.90;;;;;;5073989;28;20441;-78
2021/06/11 00:31:51;;;;;;;11.17;9.40;;;15.60;99.90;;;;;;5073992;28;20831;-78
2021/06/11 00:34:17;;;;;;;12.87;10.17;;;15.60;99.90;;;;;;5074127;28;20453;-78
2021/06/11 00:36:44;;;;;;;12.10;10.07;;;15.60;99.90;;;;;;5074086;28;20449;-78
2021/06/11 00:39:11;;;;;;;11.90;10.27;;;15.60;99.90;;;;;;5074047;28;20793;-78
2021/06/11 00:41:37;;;;;;;13.70;11.20;;;15.60;99.90;;;;;;5073616;28;20485;-78
2021/06/11 00:44:04;;;;;;;13.83;10.87;;;15.50;99.90;;;;;;5073639;28;20495;-78
2021/06/11 00:46:30;;;;;;;13.50;9.97;;;15.50;99.90;;;;;;5073871;28;20502;-78
2021/06/11 00:48:57;;;;;;;15.07;11.27;;;15.50;99.90;;;;;;5073581;28;20449;-78
2021/06/11 00:51:24;;;;;;;13.97;10.47;;;15.50;99.90;;;;;;5073746;28;20457;-77
2021/06/11 00:53:50;;;;;;;13.30;10.90;;;15.50;99.90;;;;;;5073488;28;21003;-78
2021/06/11 00:56:18;;;;;;;14.70;10.80;;;15.50;99.90;;;;;;5073362;28;20445;-77
2021/06/11 00:58:45;;;;;;;15.10;11.87;;;15.40;99.90;;;;;;5073375;28;20457;-78
2021/06/11 01:01:11;;;;;;;13.70;10.80;;;15.40;99.90;;;;;;5073512;28;20484;-78
2021/06/11 01:03:37;;;;;;;13.50;10.50;;;15.40;99.90;;;;;;5073398;28;20438;-78
2021/06/11 01:06:04;;;;;;;14.17;11.40;;;15.40;99.90;;;;;;5073126;28;21064;-78
2021/06/11 01:08:31;;;;;;;13.40;10.40;;;15.40;99.90;;;;;;5073582;28;20448;-78
2021/06/11 01:10:59;;;;;;;11.60;9.40;;;15.40;99.90;;;;;;5073426;28;20502;-78
2021/06/11 01:13:27;;;;;;;13.30;9.63;;;15.30;99.90;;;;;;5073517;28;20445;-78
2021/06/11 01:15:54;;;;;;;12.87;10.07;;;15.30;99.90;;;;;;5073523;28;20449;-78
2021/06/11 01:18:21;;;;;;;14.50;10.90;;;15.30;99.90;;;;;;5073420;28;20453;-77
2021/06/11 01:20:48;;;;;;;14.13;10.53;;;15.20;99.90;;;;;;5073036;28;20493;-78
2021/06/11 01:23:49;;;;;;;12.90;9.97;;;15.20;99.90;;;;;;5073537;28;20984;-78
2021/06/11 01:26:23;;;;;;;16.97;10.50;;;15.20;99.90;;;;;;5073417;28;20478;-77
2021/06/11 01:28:51;;;;;;;11.53;9.40;;;15.20;99.90;;;;;;5073086;28;20890;-77
2021/06/11 01:31:19;;;;;;;15.30;10.90;;;15.10;99.90;;;;;;5073283;28;20514;-78
2021/06/11 01:33:48;;;;;;;12.87;10.37;;;15.10;99.90;;;;;;5072965;28;21021;-77
2021/06/11 01:36:17;;;;;;;13.83;10.53;;;15.10;99.90;;;;;;5073283;28;20441;-77
2021/06/11 01:38:47;;;;;;;15.70;10.73;;;15.10;99.90;;;;;;5073253;28;20440;-78
2021/06/11 01:41:17;;;;;;;18.47;10.00;;;15.10;99.90;;;;;;5073164;28;20469;-82
2021/06/11 01:43:48;;;;;;;11.20;10.00;;;15.10;99.90;;;;;;5072888;28;20967;-82
2021/06/11 01:46:16;;;;;;;11.57;9.53;;;15.00;99.90;;;;;;5072988;28;20877;-82
2021/06/11 01:48:46;;;;;;;12.40;9.73;;;15.00;99.90;;;;;;5073172;28;20461;-82
2021/06/11 01:51:14;;;;;;;10.57;9.00;;;15.00;99.90;;;;;;5073079;28;20444;-83
2021/06/11 01:53:42;;;;;;;12.10;9.53;;;14.90;99.90;;;;;;5072808;28;20948;-83
2021/06/11 01:56:12;;;;;;;15.90;10.40;;;14.90;99.90;;;;;;5072745;28;20982;-82
2021/06/11 01:58:40;;;;;;;12.40;10.40;;;14.90;99.90;;;;;;5072764;28;20444;-82
2021/06/11 02:01:08;;;;;;;10.83;9.33;;;14.90;99.90;;;;;;5072617;28;21004;-82
2021/06/11 02:03:35;;;;;;;11.53;10.23;;;14.90;99.90;;;;;;5072964;28;20457;-82
2021/06/11 02:06:02;;;;;;;12.27;10.60;;;14.90;99.90;;;;;;5072649;28;20473;-82
2021/06/11 02:08:29;;;;;;;12.00;9.13;;;14.80;99.90;;;;;;5074489;28;20449;-82
2021/06/11 02:10:57;;;;;;;13.07;11.10;;;14.80;99.90;;;;;;5076820;28;20456;-82
2021/06/11 02:13:24;;;;;;;13.27;10.60;;;14.80;99.90;;;;;;5076566;28;20927;-82
2021/06/11 02:15:52;;;;;;;14.17;10.47;;;14.80;99.90;;;;;;5076806;28;20444;-82
2021/06/11 02:18:21;;;;;;;12.73;10.40;;;14.80;99.90;;;;;;5076725;28;20456;-82
2021/06/11 02:20:48;;;;;;;11.40;9.57;;;14.70;99.90;;;;;;5076404;28;20813;-82
2021/06/11 02:23:14;;;;;;;12.33;9.33;;;14.70;99.90;;;;;;5076328;28;20487;-82
2021/06/11 02:25:40;;;;;;;11.87;9.77;;;14.70;99.90;;;;;;5076355;28;20936;-82
2021/06/11 02:28:07;;;;;;;12.47;9.77;;;14.70;99.90;;;;;;5076266;28;20932;-82
2021/06/11 02:30:34;;;;;;;13.50;9.93;;;14.70;99.90;;;;;;5076477;28;20452;-82
2021/06/11 02:33:00;;;;;;;13.60;10.50;;;14.70;99.90;;;;;;5076393;28;20468;-82
2021/06/11 02:35:27;;;;;;;11.80;9.80;;;14.70;99.90;;;;;;5076428;28;20448;-82
2021/06/11 02:37:54;;;;;;;10.33;9.20;;;14.70;99.90;;;;;;5076173;28;20789;-76
2021/06/11 02:40:21;;;;;;;15.47;10.40;;;14.70;99.90;;;;;;5076287;28;20445;-76
2021/06/11 02:42:53;;;;;;;13.40;9.80;;;14.70;99.90;;;;;;5076155;28;20538;-76
2021/06/11 02:45:24;;;;;;;15.07;10.57;;;14.60;99.90;;;;;;5076040;28;20414;-76
2021/06/11 02:47:55;;;;;;;14.80;10.10;;;14.60;99.90;;;;;;5075925;28;20433;-76
2021/06/11 02:50:26;;;;;;;13.57;10.00;;;14.60;99.90;;;;;;5075972;28;20482;-76
2021/06/11 02:52:59;;;;;;;13.37;10.23;;;14.60;99.90;;;;;;5075782;28;20999;-76
2021/06/11 02:55:28;;;;;;;12.70;9.90;;;14.60;99.90;;;;;;5076084;28;20433;-76
2021/06/11 02:58:00;;;;;;;12.13;9.83;;;14.60;99.90;;;;;;5076067;28;20441;-77
2021/06/11 03:00:30;;;;;;;13.50;10.90;;;14.60;99.90;;;;;;5076035;28;20417;-76
2021/06/11 03:03:08;;;;;;;12.67;10.43;;;14.60;99.90;;;;;;5075550;28;20464;-76
2021/06/11 03:05:35;;;;;;;10.47;9.00;;;14.60;99.90;;;;;;5075372;28;20480;-76
2021/06/11 03:08:07;;;;;;;10.60;9.23;;;14.60;99.90;;;;;;5075822;28;20460;-76
2021/06/11 03:10:35;;;;;;;11.00;9.80;;;14.60;99.90;;;;;;5074264;28;20476;-77
2021/06/11 03:13:02;;;;;;;12.27;9.67;;;14.60;99.90;;;;;;5075733;28;20469;-76
2021/06/11 03:15:31;;;;;;;12.07;9.97;;;14.60;99.90;;;;;;5075399;28;20441;-76
2021/06/11 03:18:01;;;;;;;12.53;9.90;;;14.60;99.90;;;;;;5075659;28;20441;-76
2021/06/11 03:20:33;;;;;;;13.43;10.87;;;14.60;99.90;;;;;;5075038;28;20438;-76
2021/06/11 03:23:04;;;;;;;12.80;10.20;;;14.60;99.90;;;;;;5075425;28;21015;-76
2021/06/11 03:25:33;;;;;;;15.53;10.53;;;14.50;99.90;;;;;;5075497;28;20426;-76
2021/06/11 03:28:05;;;;;;;13.60;10.10;;;14.50;99.90;;;;;;5075523;28;20470;-76
2021/06/11 03:30:33;;;;;;;14.37;10.47;;;14.50;99.90;;;;;;5075202;28;20413;-82
2021/06/11 03:33:04;;;;;;;13.57;11.00;;;14.50;99.90;;;;;;5075332;28;20472;-81
2021/06/11 03:35:34;;;;;;;13.80;10.80;;;14.50;99.90;;;;;;5075390;28;20430;-82
2021/06/11 03:38:07;;;;;;;12.03;9.37;;;14.50;99.90;;;;;;5075022;28;20900;-82
2021/06/11 03:40:36;;;;;;;14.50;10.30;;;14.50;99.90;;;;;;5074839;28;20429;-82
2021/06/11 03:43:03;;;;;;;11.20;9.03;;;14.50;99.90;;;;;;5075092;28;20472;-82
2021/06/11 03:45:30;;;;;;;11.73;9.70;;;14.50;99.90;;;;;;5074829;28;20445;-81
2021/06/11 03:48:00;;;;;;;10.87;9.77;;;14.50;99.90;;;;;;5074747;28;20445;-81
2021/06/11 03:50:28;;;;;;;11.70;10.07;;;14.50;99.90;;;;;;5075109;28;20449;-81
2021/06/11 03:52:58;;;;;;;12.63;8.70;;;14.50;99.90;;;;;;5074937;28;20506;-81
2021/06/11 03:55:28;;;;;;;10.33;8.97;;;14.50;99.90;;;;;;5074671;28;20977;-81
2021/06/11 03:58:01;;;;;;;11.37;9.50;;;14.50;99.90;;;;;;5074689;28;20414;-81
2021/06/11 04:00:29;;;;;;;10.23;9.13;;;14.50;99.90;;;;;;5074862;28;20789;-81
2021/06/11 04:02:57;;;;;;;12.43;10.03;;;14.60;99.90;;;;;;5074317;28;21088;-81
2021/06/11 04:05:23;;;;;;;12.33;9.87;;;14.60;99.90;;;;;;5074293;28;20518;-81
2021/06/11 04:07:53;;;;;;;11.40;9.23;;;14.60;99.90;;;;;;5074673;28;20463;-81
2021/06/11 04:10:24;;;;;;;11.33;9.93;;;14.60;99.90;;;;;;5074703;28;20468;-81
2021/06/11 04:12:54;;;;;;;10.93;9.50;;;14.60;99.90;;;;;;5074549;28;20462;-81
2021/06/11 04:15:20;;;;;;;12.50;8.47;;;14.60;99.90;;;;;;5074833;28;20445;-81
2021/06/11 04:17:50;;;;;;;11.60;9.90;;;14.60;99.90;;;;;;5074518;28;20495;-81
2021/06/11 04:20:21;;;;;;;13.90;9.87;;;14.70;99.90;;;;;;5074490;28;20456;-76
2021/06/11 04:22:50;;;;;;;10.70;9.57;;;14.70;99.90;;;;;;5074014;28;20485;-76
2021/06/11 04:25:17;;;;;;;12.30;10.10;;;14.80;99.90;;;;;;5074372;28;20791;-76
2021/06/11 04:27:45;;;;;;;13.90;9.90;;;14.80;99.90;;;;;;5074051;28;20438;-77
2021/06/11 04:30:15;;;;;;;11.20;9.60;;;14.90;99.90;;;;;;5074232;28;20452;-76
2021/06/11 04:32:41;;;;;;;10.90;9.00;;;15.00;99.90;;;;;;5072863;28;20457;-77
2021/06/11 04:35:09;;;;;;;11.53;8.50;;;15.00;99.90;;;;;;5073899;28;20436;-76
2021/06/11 04:37:36;;;;;;;11.90;9.10;;;15.10;99.90;;;;;;5073804;28;20944;-77
2021/06/11 04:40:03;;;;;;;12.47;9.47;;;15.10;99.90;;;;;;5074040;28;20449;-77
2021/06/11 04:42:29;;;;;;;11.43;9.30;;;15.20;99.90;;;;;;5073543;28;20492;-77
2021/06/11 04:44:58;;;;;;;12.40;9.30;;;15.20;99.90;;;;;;5073953;28;20441;-78
2021/06/11 04:47:27;;;;;;;11.23;9.23;;;15.30;99.90;;;;;;5073934;28;20498;-78
2021/06/11 04:49:53;;;;;;;10.60;9.20;;;15.40;99.90;;;;;;5073868;28;20452;-78
2021/06/11 04:52:20;;;;;;;11.20;9.50;;;15.50;99.90;;;;;;5073416;28;20979;-78
2021/06/11 04:54:46;;;;;;;13.93;9.63;;;15.60;99.90;;;;;;5073511;28;21007;-78
2021/06/11 04:57:12;;;;;;;10.90;9.40;;;15.60;99.90;;;;;;5073486;28;20429;-78
2021/06/11 04:59:38;;;;;;;10.00;8.80;;;15.70;99.90;;;;;;5073798;28;20444;-78
2021/06/11 05:02:05;;;;;;;12.60;10.20;;;15.70;99.90;;;;;;5073290;28;20484;-78
2021/06/11 05:04:32;;;;;;;9.57;8.50;;;15.80;99.90;;;;;;5073694;28;20796;-78
2021/06/11 05:06:59;;;;;;;11.00;9.43;;;15.80;99.90;;;;;;5073215;28;20491;-78
2021/06/11 05:09:26;;;;;;;8.80;7.73;;;15.90;99.90;;;;;;5073285;28;20456;-79
2021/06/11 05:11:52;;;;;;;10.77;8.50;;;15.90;99.90;;;;;;5073511;28;20472;-78
2021/06/11 05:14:18;;;;;;;11.17;8.73;;;16.00;99.90;;;;;;5073529;28;20453;-79
2021/06/11 05:16:44;;;;;;;9.63;8.67;;;16.10;99.90;;;;;;5073899;28;20449;-78
2021/06/11 05:19:11;;;;;;;12.03;9.33;;;16.10;99.90;;;;;;5073421;28;20449;-78
2021/06/11 05:21:38;;;;;;;11.30;9.00;;;16.20;99.90;;;;;;5073241;28;20488;-78
2021/06/11 05:24:05;;;;;;;12.40;9.67;;;16.30;99.90;;;;;;5073130;28;20444;-78
2021/06/11 05:26:32;;;;;;;9.20;8.30;;;16.40;99.90;;;;;;5073369;28;20449;-78
2021/06/11 05:28:58;;;;;;;9.63;8.40;;;16.50;99.90;;;;;;5073390;28;20452;-78
2021/06/11 05:31:24;;;;;;;11.47;8.97;;;16.50;99.90;;;;;;5073394;28;20464;-77
2021/06/11 05:33:52;;;;;;;10.47;9.37;;;16.60;99.90;;;;;;5073886;28;20963;-78
2021/06/11 05:36:18;;;;;;;11.33;10.13;;;16.70;99.90;;;;;;5073998;28;20540;-77
2021/06/11 05:38:46;;;;;;;12.93;10.20;;;16.80;99.90;;;;;;5073284;28;20449;-77
2021/06/11 05:41:12;;;;;;;11.80;9.20;;;16.90;99.90;;;;;;5073087;28;20488;-77
2021/06/11 05:43:38;;;;;;;11.73;10.50;;;17.10;99.90;;;;;;5076565;28;20429;-77
2021/06/11 05:46:04;;;;;;;11.63;10.43;;;17.20;99.90;;;;;;5079575;28;20816;-77
2021/06/11 05:48:30;;;;;;;10.13;9.10;;;17.30;99.90;;;;;;5079840;28;20444;-77
2021/06/11 05:50:57;;;;;;;10.40;9.30;;;17.40;99.90;;;;;;5079749;28;20445;-77
2021/06/11 05:53:23;;;;;;;11.83;10.40;;;17.50;99.90;;;;;;5079819;28;20510;-82
2021/06/11 05:55:52;;;;;;;12.23;10.73;;;17.60;99.90;;;;;;5079749;28;20452;-82
2021/06/11 05:58:18;;;;;;;10.87;9.70;;;17.70;99.90;;;;;;5079437;28;20947;-82
2021/06/11 06:00:44;;;;;;;11.00;9.90;;;17.80;99.90;;;;;;5079440;28;20972;-82
2021/06/11 06:03:11;;;;;;;10.27;9.13;;;17.90;99.90;;;;;;5079801;28;20488;-82
2021/06/11 06:05:37;;;;;;;11.10;10.10;;;18.00;99.90;;;;;;5079325;28;20465;-82
2021/06/11 06:08:05;;;;;;;10.33;9.30;;;18.30;99.90;;;;;;5079652;28;20444;-82
2021/06/11 06:10:31;;;;;;;10.40;9.40;;;18.50;99.90;;;;;;5079584;28;20444;-82
2021/06/11 06:12:59;;;;;;;9.80;8.90;;;18.80;99.90;;;;;;5079284;28;20464;-82
2021/06/11 06:15:25;;;;;;;10.67;9.57;;;19.00;99.90;;;;;;5079656;28;20440;-82
2021/06/11 06:17:51;;;;;;;10.10;9.23;;;19.30;99.90;;;;;;5080019;28;20463;-79
2021/06/11 06:20:18;;;;;;;9.70;8.90;;;19.70;99.90;;;;;;5079606;28;20463;-79
2021/06/11 06:22:44;;;;;;;9.27;8.47;;;20.00;99.90;;;;;;5079130;28;20480;-79
2021/06/11 06:25:12;;;;;;;9.70;8.80;;;20.40;99.90;;;;;;5079435;28;20493;-79
2021/06/11 06:27:40;;;;;;;9.98;9.07;;;20.80;99.90;;;;;;5079214;28;20676;-79
2021/06/11 06:30:10;;;;;;;8.80;8.00;;;21.30;99.90;;;;;;5079308;28;20669;-79
2021/06/11 06:32:37;;;;;;;9.18;8.38;;;21.70;99.90;;;;;;5079535;28;20224;-79
2021/06/11 06:35:05;;;;;;;8.05;7.35;;;22.30;99.90;;;;;;5079297;28;20178;-80
2021/06/11 06:37:32;;;;;;;8.52;7.75;;;22.90;99.90;;;;;;5079504;28;20186;-79
2021/06/11 06:39:58;;;;;;;7.60;7.10;;;23.40;99.90;;;;;;5079429;28;20216;-80
2021/06/11 06:42:24;;;;;;;8.20;7.60;;;23.60;99.90;;;;;;5079367;28;20222;-79
2021/06/11 06:44:51;;;;;;;8.30;7.70;;;23.80;99.90;;;;;;5079463;28;20182;-79
2021/06/11 06:47:18;;;;;;;7.60;7.00;;;24.00;99.90;;;;;;5079424;28;20190;-80
2021/06/11 06:49:45;;;;;;;8.77;7.97;;;24.10;99.90;;;;;;5079326;28;20202;-80
2021/06/11 06:52:11;;;;;;;10.55;7.15;;;24.30;99.90;;;;;;5079280;28;20222;-80
2021/06/11 06:54:40;;;;;;;9.20;8.50;;;24.50;99.90;;;;;;5077270;28;20179;-80
2021/06/11 06:57:07;;;;;;;10.95;9.85;;;24.60;99.90;;;;;;5076152;28;20182;-80
2021/06/11 06:59:33;;;;;;;10.43;9.52;;;24.60;99.90;;;;;;5075834;28;20194;-79
2021/06/11 07:02:00;;;;;;;9.57;8.68;;;24.50;99.90;;;;;;5075887;28;20291;-80
2021/06/11 07:04:28;;;;;;;10.00;9.00;;;24.50;99.90;;;;;;5075968;28;20666;-80
2021/06/11 07:06:54;;;;;;;10.63;9.73;;;24.40;99.90;;;;;;5075530;28;20635;-79
2021/06/11 07:09:21;;;;;;;13.02;11.63;;;24.40;99.90;;;;;;5075874;28;20202;-79
2021/06/11 07:11:48;;;;;;;11.23;10.27;;;24.40;99.90;;;;;;5075773;28;20306;-80
2021/06/11 07:14:14;;;;;;;11.38;10.27;;;24.40;99.90;;;;;;5075755;28;20241;-80
2021/06/11 07:16:41;;;;;;;11.20;10.30;;;24.50;99.90;;;;;;5075959;28;20198;-84
2021/06/11 07:19:07;;;;;;;12.00;10.80;;;24.60;99.90;;;;;;5075664;28;20205;-84
2021/06/11 07:21:34;;;;;;;11.40;10.32;;;24.80;99.90;;;;;;5075281;28;20629;-84
2021/06/11 07:24:01;;;;;;;11.20;10.30;;;24.80;99.90;;;;;;5076238;28;20516;-84
2021/06/11 07:26:27;;;;;;;12.07;10.85;;;24.90;99.90;;;;;;5075374;28;20210;-85
2021/06/11 07:28:53;;;;;;;11.55;10.48;;;25.20;99.90;;;;;;5075614;28;20202;-84
2021/06/11 07:31:20;;;;;;;11.23;10.23;;;25.70;99.90;;;;;;5075236;28;20226;-84
2021/06/11 07:33:46;;;;;;;13.90;12.55;;;26.20;99.90;;;;;;5075885;28;20216;-84
2021/06/11 07:36:13;;;;;;;12.73;11.73;;;26.60;99.90;;;;;;5075400;28;20206;-85
2021/06/11 07:38:40;;;;;;;11.65;10.65;;;27.10;99.90;;;;;;5075428;28;20212;-84
2021/06/11 07:41:07;;;;;;;12.10;11.00;;;27.90;99.90;;;;;;5075246;28;20207;-85
2021/06/11 07:43:33;;;;;;;12.80;11.60;;;28.60;97.80;;;;;;5075257;28;20209;-84
2021/06/11 07:45:59;;;;;;;11.77;10.77;;;28.60;94.60;;;;;;5075225;28;20206;-84
2021/06/11 07:48:26;;;;;;;10.73;9.82;;;28.90;93.10;;;;;;5075212;28;20208;-85
2021/06/11 07:50:52;;;;;;;11.52;10.60;;;29.20;93.20;;;;;;5075170;28;20254;-84
2021/06/11 07:53:23;;;;;;;10.70;9.90;;;29.20;91.00;;;;;;5075073;28;20218;-84
2021/06/11 07:55:51;;;;;;;10.85;9.90;;;29.00;91.30;;;;;;5075155;28;20195;-84
2021/06/11 07:58:17;;;;;;;11.80;10.60;;;29.20;91.30;;;;;;5074768;28;20224;-85
2021/06/11 08:00:43;;;;;;;11.45;10.52;;;29.70;87.50;;;;;;5074935;28;20208;-84
2021/06/11 08:03:10;;;;;;;11.45;10.55;;;30.60;82.40;;;;;;5074462;28;20227;-84
2021/06/11 08:05:39;;;;;;;10.75;9.70;;;31.50;80.00;;;;;;5074278;28;20269;-85
2021/06/11 08:08:06;;;;;;;11.38;10.38;;;32.60;75.60;;;;;;5074823;28;20216;-85
2021/06/11 08:10:32;;;;;;;12.35;11.35;;;33.70;70.90;;;;;;5074568;28;20195;-84
2021/06/11 08:12:59;;;;;;;11.55;10.65;;;34.50;65.40;;;;;;5074630;28;20218;-85
2021/06/11 08:15:26;;;;;;;11.05;9.38;;;35.20;61.10;;;;;;5074671;28;20214;-83
2021/06/11 08:17:53;;;;;;;11.35;10.55;;;35.50;57.30;;;;;;5074263;28;20677;-82
2021/06/11 08:20:19;;;;;;;10.30;9.50;;;36.00;55.90;;;;;;5074509;28;20227;-82
2021/06/11 08:22:46;;;;;;;11.65;10.75;;;35.80;56.40;;;;;;5074060;28;20600;-82
2021/06/11 08:25:13;;;;;;;11.75;10.85;;;36.20;55.30;;;;;;5074388;28;20212;-82
2021/06/11 08:27:41;;;;;;;12.27;11.27;;;36.50;53.00;;;;;;5074422;28;20206;-82
2021/06/11 08:30:10;;;;;;;11.57;10.77;;;36.50;53.50;;;;;;5077214;28;20206;-81
2021/06/11 08:32:37;;;;;;;12.60;11.60;;;36.40;53.10;;;;;;5076122;28;20252;-82
2021/06/11 08:35:04;;;;;;;12.65;11.68;;;36.30;51.70;;;;;;5074232;28;20203;-81
2021/06/11 08:37:30;;;;;;;13.52;12.45;;;36.10;52.40;;;;;;5074270;28;20194;-81
2021/06/11 08:39:57;;;;;;;11.63;10.80;;;35.80;52.10;;;;;;5073878;28;20641;-85
2021/06/11 08:42:28;;;;;;;13.00;12.00;;;35.50;52.40;;;;;;5073971;28;20226;-85
2021/06/11 08:44:57;;;;;;;12.05;11.18;;;35.20;53.40;;;;;;5073751;28;20717;-84
2021/06/11 08:47:26;;;;;;;12.85;11.75;;;34.20;55.40;;;;;;5074156;28;20180;-85
2021/06/11 08:49:52;;;;;;;11.85;10.85;;;32.50;58.20;;;;;;5073758;28;20201;-85
2021/06/11 08:52:19;;;;;;;12.98;11.90;;;31.40;61.90;;;;;;5073730;28;20285;-85
2021/06/11 08:54:45;;;;;;;12.43;11.43;;;31.00;62.20;;;;;;5073739;28;20188;-84
2021/06/11 08:57:12;;;;;;;12.25;11.18;;;30.80;63.00;;;;;;5073870;28;20262;-84
2021/06/11 08:59:38;;;;;;;12.70;11.35;;;30.60;63.90;;;;;;5073656;28;20209;-84
2021/06/11 09:02:05;;;;;;;13.73;12.52;;;30.10;63.90;;;;;;5073754;28;20243;-82
2021/06/11 09:04:44;;;;;;;13.35;12.15;;;29.70;67.00;;;;;;5073529;28;20554;-80
2021/06/11 09:07:22;;;;;;;13.90;12.70;;;29.40;67.50;;;;;;5073461;28;20192;-81
2021/06/11 09:09:50;;;;;;;12.55;11.52;;;28.70;69.10;;;;;;5073771;28;20239;-80
2021/06/11 09:12:35;;;;;;;12.70;11.60;;;28.60;70.40;;;;;;5073632;28;20267;-80
2021/06/11 09:15:05;;;;;;;11.32;10.35;;;28.60;70.20;;;;;;5073606;28;20190;-80
2021/06/11 09:17:42;;;;;;;11.82;10.60;;;28.50;71.00;;;;;;5073474;28;20209;-81
2021/06/11 09:20:14;;;;;;;12.35;11.15;;;28.40;72.90;;;;;;5073558;28;20193;-80
2021/06/11 09:22:46;;;;;;;12.27;11.20;;;28.50;72.80;;;;;;5073406;28;20232;-81
2021/06/11 09:25:39;;;;;;;12.25;11.18;;;28.70;71.70;;;;;;5073481;28;20203;-82
2021/06/11 09:28:07;;;;;;;12.82;11.73;;;28.90;70.70;;;;;;5059655;28;20205;-80
2021/06/11 09:30:46;;;;;;;12.45;11.35;;;29.00;69.70;;;;;;5075151;28;20604;-80
2021/06/11 09:33:14;;;;;;;12.45;11.40;;;29.00;68.70;;;;;;5073060;28;20276;-81
2021/06/11 09:35:43;;;;;;;13.93;11.40;;;28.80;66.20;;;;;;5073025;28;20207;-81
2021/06/11 09:38:16;;;;;;;12.02;10.90;;;28.60;67.90;;;;;;5073358;28;20239;-82
2021/06/11 09:40:44;;;;;;;12.07;10.98;;;28.60;67.20;;;;;;5073078;28;20262;-80
2021/06/11 09:43:11;;;;;;;10.38;9.55;;;28.60;68.30;;;;;;5072904;28;20657;-80
2021/06/11 09:45:38;;;;;;;12.02;10.93;;;28.70;67.60;;;;;;5073838;28;20210;-80
2021/06/11 09:48:17;;;;;;;13.00;11.70;;;28.90;65.40;;;;;;5073284;28;20204;-80
2021/06/11 09:50:48;;;;;;;12.93;11.55;;;28.80;66.40;;;;;;5073027;28;20186;-79
2021/06/11 09:53:15;;;;;;;12.70;11.70;;;28.60;67.70;;;;;;5073244;28;20729;-81
2021/06/11 09:55:46;;;;;;;13.45;12.25;;;28.20;67.50;;;;;;5073032;28;20557;-80
2021/06/11 09:58:17;;;;;;;12.07;10.88;;;27.80;69.70;;;;;;5073198;28;20193;-79
2021/06/11 10:00:51;;;;;;;12.68;11.57;;;27.70;71.00;;;;;;5072858;28;20645;-81
2021/06/11 10:03:19;;;;;;;11.98;10.98;;;27.80;72.80;;;;;;5073515;28;20316;-79
2021/06/11 10:05:48;;;;;;;13.50;12.32;;;27.90;72.10;;;;;;5072847;28;20233;-80
2021/06/11 10:08:17;;;;;;;12.23;11.23;;;28.00;70.20;;;;;;5073059;28;20583;-81
2021/06/11 10:10:45;;;;;;;11.73;10.73;;;28.20;69.60;;;;;;5073092;28;20183;-81
2021/06/11 10:13:13;;;;;;;12.80;11.70;;;28.20;72.20;;;;;;5073328;28;20221;-80
2021/06/11 10:15:40;;;;;;;12.43;11.32;;;28.40;69.50;;;;;;5073083;28;20183;-80
2021/06/11 10:18:07;;;;;;;11.82;10.82;;;28.50;69.80;;;;;;5073040;28;20185;-81
2021/06/11 10:20:34;;;;;;;13.27;11.98;;;28.60;71.20;;;;;;5072954;28;20186;-79
2021/06/11 10:23:03;;;;;;;13.75;12.50;;;28.50;68.70;;;;;;5072836;28;20251;-80
2021/06/11 10:25:30;;;;;;;14.30;13.00;;;28.10;68.70;;;;;;5072598;28;20186;-79
2021/06/11 10:27:57;;;;;;;14.10;12.95;;;27.60;70.00;;;;;;5072655;28;20178;-80
2021/06/11 10:30:27;;;;;;;11.82;10.85;;;27.20;72.40;;;;;;5074197;28;20187;-83
2021/06/11 10:32:54;;;;;;;11.68;10.68;;;26.80;72.70;;;;;;5076113;28;20593;-84
2021/06/11 10:35:40;;;;;;;12.80;11.70;;;26.40;75.10;;;;;;5076243;28;20190;-83
2021/06/11 10:38:30;;;;;;;12.52;11.40;;;26.30;76.60;;;;;;5076186;28;20187;-84
2021/06/11 10:40:58;;;;;;;12.27;11.15;;;26.60;76.90;;;;;;5076081;28;20281;-84
2021/06/11 10:43:28;;;;;;;12.50;11.32;;;27.00;75.10;;;;;;5076310;28;20208;-83
2021/06/11 10:45:56;;;;;;;12.85;11.75;;;27.10;73.70;;;;;;5076093;28;20184;-83
2021/06/11 10:48:23;;;;;;;11.32;10.43;;;27.00;75.10;;;;;;5076163;28;20532;-84
2021/06/11 10:50:49;;;;;;;11.52;10.50;;;26.90;75.60;;;;;;5076504;28;20190;-84
2021/06/11 10:53:30;;;;;;;12.00;11.00;;;26.80;76.40;;;;;;5075900;28;20225;-84
2021/06/11 10:56:12;;;;;;;11.73;10.73;;;26.60;76.40;;;;;;5075870;28;20561;-84
2021/06/11 10:58:39;;;;;;;11.82;10.82;;;26.50;76.50;;;;;;5076180;28;20182;-84
2021/06/11 11:01:26;;;;;;;12.70;11.60;;;26.50;79.00;;;;;;5075990;28;20197;-84
2021/06/11 11:03:53;;;;;;;11.15;10.25;;;26.40;78.20;;;;;;5075989;28;20182;-83
2021/06/11 11:06:34;;;;;;;11.77;10.68;;;26.20;74.20;;;;;;5075553;28;20226;-83
2021/06/11 11:09:05;;;;;;;10.82;9.88;;;26.00;76.50;;;;;;5075962;28;20186;-83
2021/06/11 11:11:41;;;;;;;12.05;11.00;;;25.90;77.70;;;;;;5075514;28;20374;-83
2021/06/11 11:14:39;;;;;;;10.77;9.88;;;25.70;77.00;;;;;;5075947;28;20192;-83
2021/06/11 11:17:06;;;;;;;11.88;10.77;;;25.60;79.50;;;;;;5076230;28;20539;-84
2021/06/11 11:19:46;;;;;;;11.90;10.80;;;25.50;78.40;;;;;;5075794;28;20202;-83
2021/06/11 11:22:29;;;;;;;11.70;10.63;;;25.50;77.40;;;;;;5075548;28;20267;-83
2021/06/11 11:24:57;;;;;;;10.80;9.80;;;25.70;76.30;;;;;;5075627;28;20270;-83
2021/06/11 11:27:25;;;;;;;11.65;10.65;;;26.00;74.70;;;;;;5075568;28;20202;-83
2021/06/11 11:29:53;;;;;;;11.30;10.40;;;26.20;74.70;;;;;;5075605;28;20235;-84
2021/06/11 11:32:20;;;;;;;10.77;9.85;;;26.50;73.70;;;;;;5075511;28;20580;-83
2021/06/11 11:34:46;;;;;;;11.07;10.02;;;26.60;70.80;;;;;;5075229;28;20713;-84
2021/06/11 11:37:13;;;;;;;11.80;10.80;;;26.80;71.10;;;;;;5075230;28;20641;-83
2021/06/11 11:39:40;;;;;;;11.02;10.05;;;27.00;69.00;;;;;;5075493;28;20637;-82
2021/06/11 11:42:07;;;;;;;7.57;6.97;;;27.10;67.30;;;;;;5074681;28;20222;-83
2021/06/11 11:44:33;;;;;;;9.27;8.50;;;27.10;63.60;;;;;;5075392;28;20194;-81
2021/06/11 11:47:02;;;;;;;8.93;8.20;;;27.10;62.90;;;;;;5075260;28;20190;-80
2021/06/11 11:49:28;;;;;;;9.85;9.00;;;27.00;63.90;;;;;;5075472;28;20198;-80
2021/06/11 11:51:55;;;;;;;9.07;8.38;;;27.10;65.20;;;;;;5074760;28;20233;-81
2021/06/11 11:54:22;;;;;;;8.65;7.95;;;27.30;64.20;;;;;;5075097;28;20201;-84
2021/06/11 11:56:48;;;;;;;10.07;9.27;;;27.30;65.60;;;;;;5074913;28;20656;-84
2021/06/11 11:59:14;;;;;;;10.35;9.45;;;27.40;65.50;;;;;;5075264;28;20296;-84
2021/06/11 12:01:44;;;;;;;9.57;8.65;;;27.50;65.30;;;;;;5074592;28;20693;-84
2021/06/11 12:04:14;;;;;;;8.95;8.25;;;27.60;65.00;;;;;;5074586;28;20645;-84
2021/06/11 12:06:41;;;;;;;9.13;8.40;;;27.70;64.80;;;;;;5074475;28;20230;-84
2021/06/11 12:09:07;;;;;;;9.45;8.65;;;27.70;66.40;;;;;;5074512;28;20187;-84
2021/06/11 12:11:34;;;;;;;9.82;8.82;;;27.40;62.60;;;;;;5074405;28;20224;-84
2021/06/11 12:14:00;;;;;;;9.10;8.40;;;27.20;64.10;;;;;;5074510;28;20174;-84
2021/06/11 12:16:27;;;;;;;9.90;9.10;;;26.90;66.10;;;;;;5074697;28;20186;-84
2021/06/11 12:18:53;;;;;;;9.85;9.05;;;26.60;68.10;;;;;;5074302;28;20195;-84
2021/06/11 12:21:21;;;;;;;9.70;9.00;;;26.50;68.50;;;;;;5074257;28;20210;-84
2021/06/11 12:23:48;;;;;;;8.95;8.20;;;26.50;69.90;;;;;;5074133;28;20677;-83
2021/06/11 12:26:14;;;;;;;7.47;6.97;;;26.30;69.20;;;;;;5074431;28;20190;-83
2021/06/11 12:28:40;;;;;;;8.32;7.53;;;26.20;71.30;;;;;;5074099;28;20186;-83
2021/06/11 12:31:07;;;;;;;9.65;8.85;;;26.00;71.80;;;;;;5074293;28;20194;-84
2021/06/11 12:33:33;;;;;;;9.02;8.32;;;25.80;73.00;;;;;;5074320;28;20289;-84
2021/06/11 12:36:00;;;;;;;8.75;8.02;;;25.70;75.00;;;;;;5074243;28;20193;-84
2021/06/11 12:38:28;;;;;;;10.52;9.15;;;25.50;74.80;;;;;;5074485;28;20233;-84